Time;durP1;ratioP1;P1;durP2;ratioP2;P2;SDS_P1;SDS_P2;PMS_P1;PMS_P2;Temp;Humidity;BMP_temperature;BMP_pressure;BME280_temperature;BME280_humidity;BME280_pressure;Samples;Min_cycle;Max_cycle;Signal;HPM_P1;HPM_P2
2021/01/27 00:00:26;;;;;;;13.88;9.77;;;8.00;64.00;;;;;;5073409;28;20119;-59
2021/01/27 00:02:53;;;;;;;18.23;11.73;;;8.10;63.90;;;;;;5074799;28;20394;-58
2021/01/27 00:05:26;;;;;;;20.27;12.43;;;8.10;64.10;;;;;;5071413;28;20036;-65
2021/01/27 00:07:52;;;;;;;14.63;10.55;;;8.20;64.30;;;;;;5073117;28;20044;-64
2021/01/27 00:10:18;;;;;;;15.88;10.63;;;8.20;64.20;;;;;;5074152;28;20037;-65
2021/01/27 00:12:44;;;;;;;18.33;10.80;;;8.10;63.90;;;;;;5074194;28;20040;-64
2021/01/27 00:15:14;;;;;;;18.90;11.90;;;8.20;63.90;;;;;;5072320;28;20055;-58
2021/01/27 00:17:40;;;;;;;17.52;12.07;;;8.20;64.50;;;;;;5070237;28;20036;-58
2021/01/27 00:20:13;;;;;;;15.50;11.90;;;8.20;64.50;;;;;;5072631;28;20043;-58
2021/01/27 00:22:39;;;;;;;14.07;10.60;;;8.30;64.60;;;;;;5072000;28;20128;-58
2021/01/27 00:25:07;;;;;;;17.42;11.50;;;8.30;64.30;;;;;;5069416;28;20122;-58
2021/01/27 00:27:33;;;;;;;14.38;11.23;;;8.30;64.60;;;;;;5070342;28;20051;-58
2021/01/27 00:29:58;;;;;;;17.30;11.57;;;8.20;64.40;;;;;;5074851;28;20762;-58
2021/01/27 00:32:25;;;;;;;15.23;11.77;;;8.20;64.10;;;;;;5069919;28;20071;-65
2021/01/27 00:34:51;;;;;;;14.98;11.27;;;8.20;64.40;;;;;;5071701;28;20036;-64
2021/01/27 00:37:17;;;;;;;16.15;11.13;;;8.20;64.10;;;;;;5070948;28;20087;-64
2021/01/27 00:39:42;;;;;;;13.50;11.68;;;8.20;64.40;;;;;;5069462;28;20123;-65
2021/01/27 00:42:09;;;;;;;15.50;12.32;;;8.20;64.40;;;;;;5070778;28;20056;-65
2021/01/27 00:44:34;;;;;;;13.98;11.65;;;8.20;64.70;;;;;;5069019;28;20430;-59
2021/01/27 00:47:00;;;;;;;15.55;12.32;;;8.20;65.70;;;;;;5073691;28;20253;-58
2021/01/27 00:49:26;;;;;;;18.25;12.38;;;8.20;65.70;;;;;;5070960;28;20112;-58
2021/01/27 00:51:52;;;;;;;14.18;11.63;;;8.30;65.40;;;;;;5068305;28;20135;-65
2021/01/27 00:54:17;;;;;;;13.63;11.35;;;8.30;65.80;;;;;;5071204;28;20066;-65
2021/01/27 00:56:43;;;;;;;14.07;11.95;;;8.40;65.20;;;;;;5071931;28;20158;-65
2021/01/27 00:59:09;;;;;;;14.57;12.52;;;8.40;65.30;;;;;;5071195;28;20399;-65
2021/01/27 01:01:35;;;;;;;14.57;12.60;;;8.40;65.10;;;;;;5071952;28;20204;-65
2021/01/27 01:04:03;;;;;;;14.68;11.68;;;8.40;64.80;;;;;;5072715;28;20507;-65
2021/01/27 01:06:29;;;;;;;16.33;11.38;;;8.40;64.90;;;;;;5074566;28;20033;-65
2021/01/27 01:08:55;;;;;;;13.55;10.93;;;8.40;64.60;;;;;;5069253;28;20032;-65
2021/01/27 01:11:20;;;;;;;14.45;10.55;;;8.40;65.00;;;;;;5071261;28;22200;-65
2021/01/27 01:13:46;;;;;;;16.98;11.30;;;8.40;65.90;;;;;;5071280;28;20380;-65
2021/01/27 01:16:12;;;;;;;15.15;11.40;;;8.40;65.30;;;;;;5073517;28;20040;-66
2021/01/27 01:18:37;;;;;;;16.95;11.43;;;8.40;65.90;;;;;;5071487;28;20438;-65
2021/01/27 01:21:04;;;;;;;14.15;11.63;;;8.40;65.50;;;;;;5069998;28;20047;-65
2021/01/27 01:23:29;;;;;;;17.90;13.13;;;8.40;65.70;;;;;;5071666;28;20036;-65
2021/01/27 01:25:55;;;;;;;19.42;13.25;;;8.40;65.60;;;;;;5073843;28;20464;-65
2021/01/27 01:28:21;;;;;;;15.10;12.43;;;8.50;65.30;;;;;;5071321;28;20112;-65
2021/01/27 01:30:48;;;;;;;17.48;12.57;;;8.40;64.80;;;;;;5070979;28;20067;-66
2021/01/27 01:33:18;;;;;;;14.07;12.23;;;8.40;64.90;;;;;;5070393;28;20536;-65
2021/01/27 01:35:44;;;;;;;15.93;12.90;;;8.40;65.00;;;;;;5072116;28;20086;-64
2021/01/27 01:38:11;;;;;;;16.67;12.38;;;8.20;64.80;;;;;;5071529;28;20051;-64
2021/01/27 01:40:40;;;;;;;18.45;13.10;;;8.20;65.10;;;;;;5070521;28;20412;-64
2021/01/27 01:43:17;;;;;;;19.38;12.45;;;8.20;64.80;;;;;;5072757;28;20094;-65
2021/01/27 01:45:44;;;;;;;17.95;12.35;;;8.20;64.90;;;;;;5073745;28;20050;-64
2021/01/27 01:48:28;;;;;;;14.65;11.82;;;8.10;65.00;;;;;;5071037;28;20468;-64
2021/01/27 01:51:06;;;;;;;16.17;10.93;;;8.10;65.30;;;;;;5058011;28;20926;-64
2021/01/27 01:53:32;;;;;;;16.40;12.98;;;8.10;65.80;;;;;;5070749;28;20036;-64
2021/01/27 01:56:02;;;;;;;18.45;13.27;;;8.10;65.40;;;;;;5072616;28;20044;-65
2021/01/27 01:58:28;;;;;;;16.35;14.45;;;8.10;65.30;;;;;;5071817;28;20094;-64
2021/01/27 02:00:57;;;;;;;18.40;13.02;;;8.10;65.00;;;;;;5070721;28;20040;-64
2021/01/27 02:03:26;;;;;;;16.60;12.35;;;8.10;65.00;;;;;;5058819;28;20107;-64
2021/01/27 02:05:52;;;;;;;18.48;12.98;;;8.10;65.10;;;;;;5073365;28;20115;-65
2021/01/27 02:08:18;;;;;;;21.85;15.48;;;8.10;64.80;;;;;;5069238;28;20144;-65
2021/01/27 02:10:44;;;;;;;16.92;12.00;;;8.10;64.80;;;;;;5070479;28;20036;-64
2021/01/27 02:13:30;;;;;;;18.08;14.00;;;8.00;64.90;;;;;;5070087;28;20043;-64
2021/01/27 02:16:05;;;;;;;13.98;11.32;;;8.00;64.90;;;;;;5060030;28;20056;-65
2021/01/27 02:19:04;;;;;;;15.57;12.25;;;8.00;65.50;;;;;;5070264;28;20043;-64
2021/01/27 02:21:45;;;;;;;15.15;12.60;;;7.90;65.20;;;;;;5072314;28;20067;-64
2021/01/27 02:24:52;;;;;;;15.70;13.05;;;7.90;65.50;;;;;;5077019;28;20044;-64
2021/01/27 02:27:43;;;;;;;17.75;13.00;;;7.90;65.40;;;;;;5044347;28;20563;-64
2021/01/27 02:30:37;;;;;;;16.85;13.70;;;7.90;65.20;;;;;;5044419;28;20076;-65
2021/01/27 02:33:30;;;;;;;17.67;11.85;;;7.80;65.10;;;;;;5070633;28;20480;-64
2021/01/27 02:36:28;;;;;;;16.58;13.73;;;7.80;65.90;;;;;;5075287;28;20181;-64
2021/01/27 02:39:10;;;;;;;19.10;13.82;;;7.80;65.60;;;;;;5067964;28;20041;-64
2021/01/27 02:42:08;;;;;;;17.53;13.27;;;7.80;65.60;;;;;;5075226;28;20110;-65
2021/01/27 02:44:49;;;;;;;18.83;14.18;;;7.80;65.20;;;;;;5076214;28;20040;-64
2021/01/27 02:47:22;;;;;;;18.60;12.77;;;7.80;65.10;;;;;;5074125;28;20056;-64
2021/01/27 02:49:57;;;;;;;19.80;13.85;;;7.80;65.20;;;;;;5061631;28;20063;-64
2021/01/27 02:52:30;;;;;;;19.38;13.95;;;7.80;64.80;;;;;;5073809;28;20082;-64
2021/01/27 02:55:13;;;;;;;17.48;13.35;;;7.70;64.70;;;;;;5076396;28;20037;-64
2021/01/27 02:58:12;;;;;;;14.93;12.75;;;7.60;64.60;;;;;;5075271;28;20040;-64
2021/01/27 03:00:43;;;;;;;14.82;12.15;;;7.60;65.20;;;;;;5065716;28;20047;-64
2021/01/27 03:03:23;;;;;;;15.35;12.20;;;7.50;65.30;;;;;;5074692;28;20072;-58
2021/01/27 03:05:57;;;;;;;15.25;13.30;;;7.50;65.00;;;;;;5073922;28;20482;-58
2021/01/27 03:08:35;;;;;;;15.45;12.57;;;7.50;64.50;;;;;;5074254;28;20487;-57
2021/01/27 03:11:13;;;;;;;15.70;11.95;;;7.50;64.50;;;;;;5075296;28;20039;-58
2021/01/27 03:13:43;;;;;;;18.67;13.52;;;7.50;64.60;;;;;;5074642;28;20033;-58
2021/01/27 03:16:13;;;;;;;15.75;12.25;;;7.50;64.70;;;;;;5074291;28;20463;-58
2021/01/27 03:18:44;;;;;;;15.48;12.48;;;7.40;64.20;;;;;;5060753;28;20038;-58
2021/01/27 03:21:14;;;;;;;14.63;12.35;;;7.40;64.40;;;;;;5074290;28;20045;-58
2021/01/27 03:23:46;;;;;;;15.82;12.43;;;7.50;64.20;;;;;;5074067;28;20143;-58
2021/01/27 03:26:35;;;;;;;18.08;13.30;;;7.50;64.00;;;;;;5072862;28;20058;-58
2021/01/27 03:29:02;;;;;;;19.88;12.77;;;7.40;63.90;;;;;;5073069;28;20071;-57
2021/01/27 03:31:28;;;;;;;14.15;10.93;;;7.40;63.80;;;;;;5073761;28;20036;-57
2021/01/27 03:34:00;;;;;;;15.75;11.95;;;7.40;64.00;;;;;;5073092;28;20082;-57
2021/01/27 03:36:31;;;;;;;14.13;11.93;;;7.50;63.50;;;;;;5074186;28;20103;-58
2021/01/27 03:38:58;;;;;;;13.00;9.93;;;7.50;63.60;;;;;;5072540;28;20024;-58
2021/01/27 03:41:30;;;;;;;13.63;10.65;;;7.50;64.10;;;;;;5074205;28;20040;-58
2021/01/27 03:44:07;;;;;;;13.77;11.05;;;7.50;63.70;;;;;;5075303;28;20102;-58
2021/01/27 03:46:33;;;;;;;14.05;10.57;;;7.40;63.00;;;;;;5071895;28;20408;-58
2021/01/27 03:49:05;;;;;;;12.27;10.90;;;7.40;63.00;;;;;;5072654;28;20041;-65
2021/01/27 03:51:38;;;;;;;11.90;9.70;;;7.30;62.80;;;;;;5073549;28;20039;-65
2021/01/27 03:54:07;;;;;;;14.98;11.38;;;7.20;62.90;;;;;;5073440;28;20036;-64
2021/01/27 03:56:55;;;;;;;14.75;10.23;;;7.10;62.80;;;;;;5072607;28;20040;-64
2021/01/27 03:59:21;;;;;;;12.52;9.70;;;7.00;62.70;;;;;;5074195;28;20061;-64
2021/01/27 04:01:51;;;;;;;15.85;10.73;;;6.80;63.10;;;;;;5074753;28;20176;-65
2021/01/27 04:04:17;;;;;;;12.80;9.98;;;6.70;63.50;;;;;;5074249;28;20040;-58
2021/01/27 04:06:43;;;;;;;12.68;10.25;;;6.50;63.90;;;;;;5073058;28;20044;-58
2021/01/27 04:09:09;;;;;;;14.38;10.18;;;6.40;64.20;;;;;;5072581;28;20051;-58
2021/01/27 04:11:36;;;;;;;13.80;10.88;;;6.40;64.40;;;;;;5073198;28;20037;-57
2021/01/27 04:14:02;;;;;;;13.55;9.63;;;6.30;64.40;;;;;;5073324;28;20047;-58
2021/01/27 04:16:29;;;;;;;13.30;9.90;;;6.30;64.70;;;;;;5072256;28;20396;-58
2021/01/27 04:18:56;;;;;;;15.80;10.18;;;6.20;65.30;;;;;;5073144;28;20039;-58
2021/01/27 04:21:21;;;;;;;15.00;10.45;;;6.30;64.60;;;;;;5074100;28;20142;-58
2021/01/27 04:23:47;;;;;;;12.35;9.98;;;6.20;64.50;;;;;;5071535;28;20056;-58
2021/01/27 04:26:13;;;;;;;12.48;8.90;;;6.10;64.70;;;;;;5072333;28;20114;-58
2021/01/27 04:28:38;;;;;;;13.10;9.55;;;6.10;64.90;;;;;;5072027;28;20036;-58
2021/01/27 04:31:04;;;;;;;14.40;9.35;;;6.10;65.40;;;;;;5072147;28;20037;-58
2021/01/27 04:33:30;;;;;;;15.95;9.55;;;6.10;65.00;;;;;;5072884;28;20463;-58
2021/01/27 04:35:56;;;;;;;13.65;9.10;;;6.10;64.90;;;;;;5071055;28;20098;-58
2021/01/27 04:38:21;;;;;;;13.10;8.65;;;6.00;64.80;;;;;;5071008;28;20036;-58
2021/01/27 04:40:52;;;;;;;14.75;9.63;;;5.90;65.10;;;;;;5072416;28;20549;-58
2021/01/27 04:43:33;;;;;;;12.57;8.90;;;6.00;65.10;;;;;;5073748;28;20634;-58
2021/01/27 04:46:19;;;;;;;12.05;9.68;;;5.90;65.30;;;;;;5059323;28;20037;-64
2021/01/27 04:48:51;;;;;;;12.02;8.88;;;5.80;65.30;;;;;;5071582;28;20037;-65
2021/01/27 04:51:33;;;;;;;12.00;9.02;;;5.70;65.50;;;;;;5071820;28;20072;-64
2021/01/27 04:54:42;;;;;;;14.68;9.27;;;5.80;65.70;;;;;;5072475;28;20874;-65
2021/01/27 04:57:30;;;;;;;13.82;8.75;;;5.90;65.80;;;;;;5058048;28;20044;-64
2021/01/27 05:00:18;;;;;;;11.85;8.35;;;5.70;65.50;;;;;;5072555;28;20106;-65
2021/01/27 05:03:16;;;;;;;13.43;8.93;;;5.80;65.90;;;;;;5073449;28;20075;-64
2021/01/27 05:05:48;;;;;;;14.15;7.93;;;5.80;65.70;;;;;;5070031;28;20047;-64
2021/01/27 05:08:22;;;;;;;12.32;9.25;;;5.90;65.40;;;;;;5070894;28;20109;-65
2021/01/27 05:10:58;;;;;;;14.02;9.32;;;6.00;65.30;;;;;;5071485;28;20037;-64
2021/01/27 05:13:54;;;;;;;11.13;8.93;;;5.90;65.20;;;;;;5072883;28;20037;-64
2021/01/27 05:16:23;;;;;;;11.55;7.97;;;5.90;65.20;;;;;;5063359;28;20553;-64
2021/01/27 05:18:56;;;;;;;11.38;7.85;;;5.90;65.50;;;;;;5071054;28;20105;-64
2021/01/27 05:21:33;;;;;;;12.03;8.67;;;5.80;65.40;;;;;;5072097;28;20032;-64
2021/01/27 05:23:59;;;;;;;11.35;7.88;;;5.90;65.50;;;;;;5073696;28;20309;-64
2021/01/27 05:26:45;;;;;;;12.40;8.80;;;5.90;65.60;;;;;;5070778;28;20040;-64
2021/01/27 05:29:19;;;;;;;10.48;7.95;;;6.00;65.60;;;;;;5071019;28;20124;-57
2021/01/27 05:32:11;;;;;;;13.98;8.70;;;6.00;65.20;;;;;;5072156;28;20033;-57
2021/01/27 05:34:41;;;;;;;9.13;7.97;;;6.10;65.50;;;;;;5071991;28;20043;-58
2021/01/27 05:37:20;;;;;;;11.32;8.45;;;6.20;65.10;;;;;;5068717;28;20053;-58
2021/01/27 05:39:48;;;;;;;11.80;8.13;;;6.10;65.30;;;;;;5059002;28;20097;-58
2021/01/27 05:42:31;;;;;;;12.05;8.07;;;6.20;65.00;;;;;;5073046;28;20485;-58
2021/01/27 05:45:17;;;;;;;9.70;8.18;;;6.20;65.00;;;;;;5070992;28;20245;-58
2021/01/27 05:47:43;;;;;;;11.73;7.80;;;6.20;65.70;;;;;;5070792;28;20037;-58
2021/01/27 05:50:18;;;;;;;10.18;7.70;;;6.30;65.40;;;;;;5071888;28;20047;-58
2021/01/27 05:52:44;;;;;;;13.43;7.88;;;6.40;65.60;;;;;;5071153;28;20447;-57
2021/01/27 05:55:10;;;;;;;12.05;9.57;;;6.50;65.20;;;;;;5072486;28;20040;-57
2021/01/27 05:57:36;;;;;;;11.00;8.35;;;6.40;65.50;;;;;;5074001;28;20040;-57
2021/01/27 06:00:23;;;;;;;10.00;8.00;;;6.50;65.60;;;;;;5076304;28;20121;-57
2021/01/27 06:02:50;;;;;;;10.27;8.35;;;6.40;65.70;;;;;;5076466;28;20033;-57
2021/01/27 06:05:27;;;;;;;11.07;8.85;;;6.30;66.60;;;;;;5074970;28;20028;-57
2021/01/27 06:07:52;;;;;;;11.52;8.45;;;6.20;67.20;;;;;;5074457;28;20043;-57
2021/01/27 06:10:32;;;;;;;9.65;7.20;;;6.30;67.70;;;;;;5075486;28;20056;-57
2021/01/27 06:13:23;;;;;;;11.75;9.10;;;6.30;67.70;;;;;;5075045;28;20115;-58
2021/01/27 06:15:49;;;;;;;12.10;8.60;;;6.30;68.10;;;;;;5075894;28;20044;-58
2021/01/27 06:18:22;;;;;;;11.63;9.20;;;6.20;67.90;;;;;;5073604;28;20927;-58
2021/01/27 06:20:48;;;;;;;11.60;8.73;;;6.20;68.10;;;;;;5075187;28;20044;-58
2021/01/27 06:23:22;;;;;;;10.48;8.18;;;6.10;68.20;;;;;;5078647;28;20038;-58
2021/01/27 06:26:30;;;;;;;12.75;8.88;;;6.10;68.40;;;;;;5073606;28;20131;-58
2021/01/27 06:29:15;;;;;;;12.13;8.95;;;6.10;68.50;;;;;;5067292;28;20076;-58
2021/01/27 06:32:12;;;;;;;11.73;9.38;;;6.10;68.20;;;;;;5075166;28;20041;-58
2021/01/27 06:34:53;;;;;;;10.57;9.50;;;6.00;68.60;;;;;;5058371;28;20091;-57
2021/01/27 06:37:47;;;;;;;14.60;9.30;;;6.00;69.30;;;;;;5073045;28;20181;-58
2021/01/27 06:40:25;;;;;;;12.50;9.98;;;5.80;70.30;;;;;;5074808;28;20092;-58
2021/01/27 06:43:09;;;;;;;14.25;11.90;;;5.60;70.80;;;;;;5075478;28;20042;-58
2021/01/27 06:45:59;;;;;;;14.57;11.32;;;5.40;71.00;;;;;;5073980;28;20051;-58
2021/01/27 06:49:09;;;;;;;16.50;10.95;;;5.30;72.00;;;;;;5073329;28;20502;-60
2021/01/27 06:51:41;;;;;;;14.55;11.25;;;5.10;73.00;;;;;;5069569;28;20083;-62
2021/01/27 06:54:12;;;;;;;34.97;12.88;;;5.20;72.80;;;;;;5075094;28;20411;-60
2021/01/27 06:57:06;;;;;;;188.00;29.77;;;5.10;73.10;;;;;;5072762;28;20036;-60
2021/01/27 06:59:50;;;;;;;16.30;12.75;;;4.90;74.10;;;;;;5074192;28;20047;-58
2021/01/27 07:02:38;;;;;;;13.27;11.60;;;4.90;74.60;;;;;;5073491;28;20089;-61
2021/01/27 07:05:13;;;;;;;15.00;12.90;;;4.80;74.40;;;;;;5072441;28;20036;-65
2021/01/27 07:08:03;;;;;;;17.27;12.70;;;4.70;74.80;;;;;;5072890;28;20046;-65
2021/01/27 07:10:38;;;;;;;15.48;12.98;;;4.60;75.20;;;;;;5073863;28;20078;-65
2021/01/27 07:13:13;;;;;;;15.95;12.98;;;4.50;75.80;;;;;;5073961;28;20090;-66
2021/01/27 07:15:57;;;;;;;15.73;14.00;;;4.50;76.40;;;;;;5072612;28;20028;-66
2021/01/27 07:18:52;;;;;;;14.70;11.43;;;4.50;76.80;;;;;;5068812;28;20084;-65
2021/01/27 07:21:28;;;;;;;14.10;11.65;;;4.50;76.70;;;;;;5069196;28;20057;-68
2021/01/27 07:24:06;;;;;;;14.70;12.05;;;4.50;76.30;;;;;;5071301;28;20492;-65
2021/01/27 07:26:51;;;;;;;14.32;12.20;;;4.40;77.60;;;;;;5068744;28;20044;-66
2021/01/27 07:29:26;;;;;;;14.32;12.48;;;4.40;76.90;;;;;;5071946;28;20062;-65
2021/01/27 07:31:59;;;;;;;13.90;12.02;;;4.30;76.40;;;;;;5072112;28;20158;-65
2021/01/27 07:34:47;;;;;;;;;;;4.30;76.70;;;;;;5073547;28;20051;-65
2021/01/27 07:37:19;;;;;;;13.52;10.55;;;4.30;80.40;;;;;;5071274;28;19948;-66
2021/01/27 07:39:55;;;;;;;12.18;10.55;;;4.20;77.90;;;;;;5071529;28;20044;-68
2021/01/27 07:42:40;;;;;;;14.15;10.88;;;4.30;77.30;;;;;;5071696;28;20063;-67
2021/01/27 07:45:31;;;;;;;38.50;13.23;;;4.20;77.40;;;;;;5068069;28;20042;-58
2021/01/27 07:48:30;;;;;;;11.50;9.85;;;4.20;78.30;;;;;;5062082;28;20052;-58
2021/01/27 07:51:00;;;;;;;10.77;9.57;;;4.30;77.80;;;;;;5066235;28;20040;-58
2021/01/27 07:53:35;;;;;;;10.60;9.27;;;4.20;77.10;;;;;;5065891;28;20047;-57
2021/01/27 07:56:31;;;;;;;10.90;8.90;;;4.30;77.60;;;;;;5063633;28;20167;-60
2021/01/27 07:59:14;;;;;;;12.18;9.68;;;4.30;78.10;;;;;;5048826;28;21257;-59
2021/01/27 08:01:43;;;;;;;12.60;10.63;;;4.30;77.60;;;;;;5062769;28;20047;-59
2021/01/27 08:04:23;;;;;;;21.08;10.85;;;4.20;78.20;;;;;;5065360;28;20044;-58
2021/01/27 08:06:54;;;;;;;12.40;9.85;;;4.20;78.30;;;;;;5075349;28;20093;-58
2021/01/27 08:09:36;;;;;;;12.70;10.25;;;4.10;78.60;;;;;;5060812;28;20035;-59
2021/01/27 08:12:18;;;;;;;370.55;44.88;;;4.10;79.00;;;;;;5064743;28;20040;-58
2021/01/27 08:15:02;;;;;;;13.38;10.55;;;4.10;78.80;;;;;;5064570;28;20476;-58
2021/01/27 08:17:47;;;;;;;10.80;9.05;;;4.00;78.50;;;;;;5062054;28;20032;-58
2021/01/27 08:20:26;;;;;;;12.88;9.15;;;4.00;78.70;;;;;;5066206;28;20033;-58
2021/01/27 08:22:54;;;;;;;17.90;8.10;;;4.00;79.30;;;;;;5072378;28;20036;-58
2021/01/27 08:25:57;;;;;;;9.63;8.63;;;4.00;79.10;;;;;;5071157;28;20115;-58
2021/01/27 08:28:23;;;;;;;9.40;7.68;;;4.00;80.00;;;;;;5073048;28;20036;-59
2021/01/27 08:31:10;;;;;;;8.45;7.55;;;4.10;79.40;;;;;;5072656;28;20032;-58
2021/01/27 08:33:53;;;;;;;8.80;7.00;;;4.10;78.90;;;;;;5071731;28;20040;-57
2021/01/27 08:36:27;;;;;;;9.52;7.15;;;4.10;78.70;;;;;;5073319;28;20605;-63
2021/01/27 08:38:56;;;;;;;10.95;7.53;;;4.10;78.70;;;;;;5072638;28;20036;-64
2021/01/27 08:41:59;;;;;;;10.35;7.38;;;4.20;78.80;;;;;;5072145;28;20036;-64
2021/01/27 08:44:40;;;;;;;7.93;6.72;;;4.30;78.90;;;;;;5064491;28;20072;-63
2021/01/27 08:47:33;;;;;;;8.20;6.72;;;4.20;78.20;;;;;;5068875;28;20161;-70
2021/01/27 08:50:00;;;;;;;26.08;8.60;;;4.20;78.40;;;;;;5071644;28;20041;-70
2021/01/27 08:52:42;;;;;;;7.55;6.75;;;4.30;78.50;;;;;;5071335;28;20036;-69
2021/01/27 08:55:43;;;;;;;7.57;6.57;;;4.40;78.70;;;;;;5070996;28;20399;-72
2021/01/27 08:58:35;;;;;;;6.70;5.20;;;4.50;78.40;;;;;;5068254;28;20758;-71
2021/01/27 09:01:09;;;;;;;6.22;5.63;;;4.50;77.90;;;;;;5070270;28;20044;-69
2021/01/27 09:03:37;;;;;;;6.15;5.45;;;4.50;77.50;;;;;;5072497;28;20476;-67
2021/01/27 09:06:18;;;;;;;7.05;5.32;;;4.50;77.40;;;;;;5072248;28;20044;-67
2021/01/27 09:08:45;;;;;;;7.00;5.35;;;4.60;77.60;;;;;;5068568;28;20142;-68
2021/01/27 09:11:11;;;;;;;6.13;4.90;;;4.60;77.60;;;;;;5060124;28;20093;-73
2021/01/27 09:13:42;;;;;;;6.05;5.32;;;4.70;77.70;;;;;;5072611;28;20040;-72
2021/01/27 09:16:21;;;;;;;6.05;5.45;;;4.70;77.30;;;;;;5070089;28;20037;-70
2021/01/27 09:18:57;;;;;;;5.03;4.53;;;4.70;77.20;;;;;;5041607;28;20452;-67
2021/01/27 09:21:24;;;;;;;5.57;5.00;;;4.70;77.00;;;;;;5071147;28;20047;-70
2021/01/27 09:24:20;;;;;;;5.13;4.63;;;4.70;77.10;;;;;;5068781;28;20032;-69
2021/01/27 09:26:50;;;;;;;4.82;4.32;;;4.80;77.10;;;;;;5067387;28;20055;-70
2021/01/27 09:29:28;;;;;;;8.23;5.43;;;4.70;76.80;;;;;;5072843;28;20032;-68
2021/01/27 09:31:56;;;;;;;6.65;5.10;;;4.80;76.80;;;;;;5069416;28;20048;-70
2021/01/27 09:34:31;;;;;;;6.63;5.25;;;4.80;76.90;;;;;;5070085;28;20043;-67
2021/01/27 09:37:08;;;;;;;6.60;5.80;;;4.70;76.50;;;;;;5072071;28;20800;-68
2021/01/27 09:39:39;;;;;;;6.00;5.07;;;4.70;76.70;;;;;;5072151;28;20036;-68
2021/01/27 09:42:25;;;;;;;5.20;4.68;;;4.70;77.10;;;;;;5071153;28;20032;-66
2021/01/27 09:45:10;;;;;;;6.45;5.78;;;4.90;77.00;;;;;;5056773;28;20122;-68
2021/01/27 09:47:42;;;;;;;7.50;5.65;;;5.00;77.30;;;;;;5066861;28;20041;-69
2021/01/27 09:50:08;;;;;;;6.03;5.43;;;5.10;76.70;;;;;;5069226;28;20067;-68
2021/01/27 09:52:35;;;;;;;7.80;5.97;;;5.20;76.20;;;;;;5069647;28;20040;-63
2021/01/27 09:55:08;;;;;;;6.80;5.90;;;5.20;76.30;;;;;;5067402;28;20040;-71
2021/01/27 09:57:36;;;;;;;6.25;5.03;;;5.40;76.30;;;;;;5069925;28;20115;-71
2021/01/27 10:00:08;;;;;;;6.68;5.72;;;5.40;76.00;;;;;;5068419;28;20097;-69
2021/01/27 10:02:35;;;;;;;7.35;6.03;;;5.40;75.90;;;;;;5067567;28;20043;-70
2021/01/27 10:05:22;;;;;;;8.95;6.13;;;5.50;75.80;;;;;;5069793;28;20368;-62
2021/01/27 10:07:47;;;;;;;7.90;6.10;;;5.40;75.50;;;;;;5070696;28;20105;-62
2021/01/27 10:10:16;;;;;;;6.97;5.85;;;5.30;75.80;;;;;;5072856;28;20403;-64
2021/01/27 10:12:43;;;;;;;12.02;6.78;;;5.30;75.80;;;;;;5066065;28;20032;-65
2021/01/27 10:15:30;;;;;;;8.55;5.90;;;5.30;76.20;;;;;;5068642;28;20081;-65
2021/01/27 10:18:05;;;;;;;7.30;6.55;;;5.30;76.10;;;;;;5073510;28;20496;-65
2021/01/27 10:20:33;;;;;;;10.20;5.90;;;5.40;76.30;;;;;;5065074;28;20032;-66
2021/01/27 10:23:02;;;;;;;7.85;5.50;;;5.40;75.90;;;;;;5069040;28;20036;-66
2021/01/27 10:25:32;;;;;;;5.60;4.95;;;5.40;75.70;;;;;;5063872;28;20067;-65
2021/01/27 10:28:24;;;;;;;6.78;5.63;;;5.30;75.40;;;;;;5071670;28;20043;-65
2021/01/27 10:30:54;;;;;;;7.22;5.95;;;5.30;75.60;;;;;;5072456;28;20048;-65
2021/01/27 10:33:32;;;;;;;6.60;5.53;;;5.20;75.20;;;;;;5070215;28;20129;-65
2021/01/27 10:35:59;;;;;;;5.78;5.05;;;5.10;75.40;;;;;;5070390;28;20032;-66
2021/01/27 10:38:25;;;;;;;5.30;4.80;;;5.00;75.60;;;;;;5071620;28;20048;-65
2021/01/27 10:41:23;;;;;;;5.30;4.80;;;4.90;75.60;;;;;;5071937;28;20069;-65
2021/01/27 10:43:49;;;;;;;5.10;4.57;;;4.80;75.90;;;;;;5071050;28;20048;-66
2021/01/27 10:46:32;;;;;;;17.00;6.45;;;4.80;76.00;;;;;;5067078;28;20037;-65
2021/01/27 10:48:59;;;;;;;6.13;4.43;;;4.90;75.60;;;;;;5067488;28;20037;-66
2021/01/27 10:51:25;;;;;;;6.13;4.95;;;4.90;75.50;;;;;;5072721;28;20480;-65
2021/01/27 10:53:51;;;;;;;5.05;4.07;;;4.80;75.50;;;;;;5074809;28;20040;-64
2021/01/27 10:56:18;;;;;;;5.57;4.40;;;4.90;75.60;;;;;;5071114;28;20044;-64
2021/01/27 10:58:44;;;;;;;6.32;5.20;;;5.00;75.50;;;;;;5074723;28;20040;-63
2021/01/27 11:01:10;;;;;;;7.85;5.47;;;5.10;75.80;;;;;;5075543;28;20467;-63
2021/01/27 11:03:36;;;;;;;7.88;4.50;;;5.20;76.30;;;;;;5072197;28;20039;-60
2021/01/27 11:06:02;;;;;;;5.38;4.28;;;5.40;75.70;;;;;;5072868;28;20123;-60
2021/01/27 11:08:32;;;;;;;5.78;4.20;;;5.50;75.50;;;;;;5063331;28;20050;-58
2021/01/27 11:11:00;;;;;;;6.28;3.95;;;5.70;75.30;;;;;;5059255;28;20140;-59
2021/01/27 11:13:27;;;;;;;6.15;4.32;;;5.80;75.10;;;;;;5060038;28;20032;-58
2021/01/27 11:15:53;;;;;;;5.28;4.53;;;5.80;74.60;;;;;;5066172;28;20097;-58
2021/01/27 11:18:20;;;;;;;4.25;3.50;;;5.80;74.70;;;;;;5067065;28;20039;-58
2021/01/27 11:20:47;;;;;;;7.40;5.63;;;5.90;74.80;;;;;;5068365;28;20033;-58
2021/01/27 11:23:14;;;;;;;5.30;4.60;;;5.90;74.50;;;;;;5066347;28;20039;-58
2021/01/27 11:25:40;;;;;;;7.25;5.30;;;5.90;74.40;;;;;;5065412;28;20051;-58
2021/01/27 11:28:05;;;;;;;5.05;4.18;;;5.90;74.40;;;;;;5066504;28;20044;-58
2021/01/27 11:30:31;;;;;;;7.30;5.07;;;5.80;74.20;;;;;;5067330;28;20050;-58
2021/01/27 11:32:59;;;;;;;6.00;4.70;;;5.80;74.20;;;;;;5066505;28;20043;-58
2021/01/27 11:35:25;;;;;;;5.68;4.55;;;5.80;74.50;;;;;;5067649;28;20044;-58
2021/01/27 11:37:52;;;;;;;5.03;4.40;;;5.80;74.30;;;;;;5065973;28;20061;-58
2021/01/27 11:40:21;;;;;;;7.72;4.82;;;5.70;74.10;;;;;;5067069;28;20066;-58
2021/01/27 11:42:47;;;;;;;6.28;4.10;;;5.70;74.50;;;;;;5066783;28;21288;-58
2021/01/27 11:45:14;;;;;;;5.93;4.13;;;5.70;74.40;;;;;;5063725;28;20044;-57
2021/01/27 11:47:39;;;;;;;5.47;4.03;;;5.70;74.60;;;;;;5066438;28;20830;-58
2021/01/27 11:50:07;;;;;;;5.68;3.83;;;5.80;74.90;;;;;;5068565;28;20031;-58
2021/01/27 11:52:33;;;;;;;5.38;3.97;;;5.90;75.10;;;;;;5070614;28;20471;-59
2021/01/27 11:54:59;;;;;;;4.93;3.92;;;6.00;74.30;;;;;;5071563;28;20047;-58
2021/01/27 11:57:25;;;;;;;4.38;3.67;;;6.10;74.40;;;;;;5072664;28;20037;-63
2021/01/27 11:59:51;;;;;;;9.18;5.15;;;6.10;74.80;;;;;;5071145;28;20038;-64
2021/01/27 12:02:17;;;;;;;5.85;4.70;;;6.20;74.40;;;;;;5071937;28;20037;-64
2021/01/27 12:04:42;;;;;;;8.73;5.38;;;6.30;74.30;;;;;;5070164;28;20072;-64
2021/01/27 12:07:08;;;;;;;11.63;6.18;;;6.30;74.00;;;;;;5071111;28;20052;-64
2021/01/27 12:09:35;;;;;;;11.10;6.15;;;6.20;74.00;;;;;;5068767;28;20036;-65
2021/01/27 12:12:05;;;;;;;5.97;5.07;;;6.10;73.60;;;;;;5068966;28;20391;-66
2021/01/27 12:14:31;;;;;;;8.43;4.78;;;6.10;73.90;;;;;;5061085;28;20154;-65
2021/01/27 12:16:57;;;;;;;5.53;5.03;;;6.10;74.50;;;;;;5071837;28;20043;-66
2021/01/27 12:19:23;;;;;;;9.52;4.95;;;6.10;73.90;;;;;;5070984;28;20032;-65
2021/01/27 12:21:49;;;;;;;12.13;5.88;;;6.10;74.10;;;;;;5071760;28;20476;-58
2021/01/27 12:24:15;;;;;;;5.43;4.90;;;6.00;74.00;;;;;;5070954;28;20048;-58
2021/01/27 12:26:41;;;;;;;5.82;4.93;;;5.90;73.70;;;;;;5070879;28;20044;-58
2021/01/27 12:29:07;;;;;;;9.60;6.07;;;5.90;73.90;;;;;;5071280;28;20085;-60
2021/01/27 12:31:33;;;;;;;6.95;5.28;;;6.00;74.30;;;;;;5074348;28;20043;-65
2021/01/27 12:33:59;;;;;;;12.02;5.35;;;5.90;74.00;;;;;;5058683;28;20404;-60
2021/01/27 12:36:25;;;;;;;8.75;5.63;;;5.80;74.70;;;;;;5070807;28;20048;-59
2021/01/27 12:38:50;;;;;;;7.13;5.85;;;5.80;74.70;;;;;;5071740;28;20635;-60
2021/01/27 12:41:17;;;;;;;7.18;5.35;;;5.90;74.50;;;;;;5073710;28;20131;-60
2021/01/27 12:43:43;;;;;;;7.22;5.22;;;6.00;74.60;;;;;;5072885;28;20062;-63
2021/01/27 12:46:09;;;;;;;7.00;4.28;;;6.00;74.60;;;;;;5071242;28;20170;-64
2021/01/27 12:48:35;;;;;;;4.60;4.13;;;6.10;74.40;;;;;;5072367;28;20040;-63
2021/01/27 12:51:01;;;;;;;6.03;4.95;;;6.00;73.80;;;;;;5073023;28;20101;-62
2021/01/27 12:53:27;;;;;;;5.20;4.43;;;6.00;74.10;;;;;;5070328;28;20036;-59
2021/01/27 12:55:53;;;;;;;4.60;3.95;;;5.90;74.40;;;;;;5069219;28;20037;-59
2021/01/27 12:58:19;;;;;;;6.25;4.38;;;6.00;74.30;;;;;;5074747;28;20095;-58
2021/01/27 13:00:46;;;;;;;4.88;4.38;;;6.10;74.80;;;;;;5046535;28;20048;-61
2021/01/27 13:03:12;;;;;;;5.20;4.70;;;6.30;74.70;;;;;;5062453;28;20649;-59
2021/01/27 13:05:37;;;;;;;5.57;4.50;;;6.40;74.60;;;;;;5063347;28;20052;-59
2021/01/27 13:08:04;;;;;;;5.60;4.20;;;6.50;74.50;;;;;;5068311;28;20572;-59
2021/01/27 13:10:30;;;;;;;6.47;4.72;;;6.60;74.20;;;;;;5069256;28;20036;-59
2021/01/27 13:12:57;;;;;;;7.60;5.25;;;6.60;73.80;;;;;;5069359;28;20060;-59
2021/01/27 13:15:23;;;;;;;5.90;5.30;;;6.50;73.80;;;;;;5069987;28;20051;-59
2021/01/27 13:17:50;;;;;;;6.57;4.95;;;6.60;74.00;;;;;;5070481;28;20048;-59